Time;durP1;ratioP1;P1;durP2;ratioP2;P2;SDS_P1;SDS_P2;PMS_P1;PMS_P2;Temp;Humidity;BMP_temperature;BMP_pressure;BME280_temperature;BME280_humidity;BME280_pressure;Samples;Min_cycle;Max_cycle;Signal;HPM_P1;HPM_P2
2022/10/19 00:00:16;;;;;;;11.43;1.27;;;10.90;99.90;;;;;;4891118;29;20049;-82
2022/10/19 00:02:42;;;;;;;13.55;1.40;;;10.90;99.90;;;;;;4887508;29;20297;-82
2022/10/19 00:05:08;;;;;;;14.70;1.45;;;11.00;99.90;;;;;;4889063;29;20504;-82
2022/10/19 00:07:33;;;;;;;10.02;1.55;;;11.00;99.90;;;;;;4875317;29;20040;-82
2022/10/19 00:09:59;;;;;;;8.52;1.20;;;11.00;99.90;;;;;;4890434;29;20145;-82
2022/10/19 00:12:25;;;;;;;8.20;1.15;;;11.10;99.90;;;;;;4890888;29;20098;-82
2022/10/19 00:14:50;;;;;;;14.25;1.38;;;11.00;99.90;;;;;;4889779;29;20055;-82
2022/10/19 00:17:16;;;;;;;12.30;1.42;;;11.10;99.90;;;;;;4874879;29;20049;-83
2022/10/19 00:19:42;;;;;;;11.70;1.40;;;11.10;99.90;;;;;;4891107;29;20073;-82
2022/10/19 00:22:07;;;;;;;7.80;1.27;;;11.10;99.90;;;;;;4890728;29;20048;-82
2022/10/19 00:24:33;;;;;;;8.52;1.17;;;11.10;99.90;;;;;;4906628;29;20413;-82
2022/10/19 00:26:59;;;;;;;10.13;1.13;;;11.10;99.90;;;;;;4875390;29;20144;-82
2022/10/19 00:29:24;;;;;;;10.18;1.38;;;11.10;99.90;;;;;;4890050;29;20056;-82
2022/10/19 00:31:50;;;;;;;10.57;1.40;;;11.10;99.90;;;;;;4891169;29;20056;-83
2022/10/19 00:34:17;;;;;;;8.50;1.15;;;11.20;99.90;;;;;;4890191;29;20656;-82
2022/10/19 00:36:42;;;;;;;13.57;1.35;;;11.10;99.90;;;;;;4889345;29;20489;-82
2022/10/19 00:39:14;;;;;;;12.32;1.23;;;11.20;99.90;;;;;;4875291;29;20100;-82
2022/10/19 00:41:40;;;;;;;9.48;1.27;;;11.20;99.90;;;;;;4874951;29;20116;-82
2022/10/19 00:44:10;;;;;;;8.45;1.75;;;11.20;99.90;;;;;;4874523;29;20055;-82
2022/10/19 00:46:38;;;;;;;10.65;0.80;;;11.20;99.90;;;;;;4875150;29;20079;-82
2022/10/19 00:49:09;;;;;;;12.73;1.67;;;11.20;99.90;;;;;;4889953;29;20072;-82
2022/10/19 00:51:38;;;;;;;9.25;1.73;;;11.20;99.90;;;;;;4889744;29;20045;-82
2022/10/19 00:54:05;;;;;;;6.40;1.02;;;11.30;99.90;;;;;;4875519;29;20135;-82
2022/10/19 00:56:32;;;;;;;12.50;1.08;;;11.30;99.90;;;;;;4890259;29;20045;-82
2022/10/19 00:58:58;;;;;;;10.30;1.40;;;11.30;99.90;;;;;;4890022;29;20048;-82
2022/10/19 01:01:26;;;;;;;14.70;1.58;;;11.30;99.90;;;;;;4890757;29;20071;-82
2022/10/19 01:03:51;;;;;;;15.20;1.38;;;11.30;99.90;;;;;;4872922;29;20163;-82
2022/10/19 01:06:18;;;;;;;16.20;1.30;;;11.30;99.90;;;;;;4891740;29;20612;-82
2022/10/19 01:08:44;;;;;;;7.63;1.00;;;11.20;99.90;;;;;;4877804;29;20421;-82
2022/10/19 01:11:21;;;;;;;9.75;1.30;;;11.30;99.90;;;;;;4878070;29;20048;-83
2022/10/19 01:14:01;;;;;;;10.75;0.93;;;11.30;99.90;;;;;;4877836;29;20397;-82
2022/10/19 01:16:52;;;;;;;9.05;0.90;;;11.30;99.90;;;;;;4894221;29;20059;-82
2022/10/19 01:19:36;;;;;;;12.95;1.48;;;11.30;99.90;;;;;;4877243;29;20332;-82
2022/10/19 01:22:38;;;;;;;8.52;1.27;;;11.30;99.90;;;;;;4877620;29;20564;-82
2022/10/19 01:25:34;;;;;;;6.32;0.82;;;11.30;99.90;;;;;;4877833;29;20064;-82
2022/10/19 01:28:15;;;;;;;7.25;0.90;;;11.30;99.90;;;;;;4890791;29;20131;-83
2022/10/19 01:31:00;;;;;;;7.10;0.82;;;11.40;99.90;;;;;;4874137;29;20100;-83
2022/10/19 01:33:37;;;;;;;11.02;1.15;;;11.40;99.90;;;;;;4872975;29;20080;-82
2022/10/19 01:36:08;;;;;;;8.52;1.30;;;11.40;99.90;;;;;;4874100;29;20494;-81
2022/10/19 01:38:50;;;;;;;9.40;0.93;;;11.30;99.90;;;;;;4874852;29;20080;-82
2022/10/19 01:41:26;;;;;;;6.38;0.70;;;11.40;99.90;;;;;;4881139;29;20084;-81
2022/10/19 01:44:00;;;;;;;10.23;1.23;;;11.40;99.90;;;;;;4877246;29;20596;-82
2022/10/19 01:46:35;;;;;;;11.65;1.20;;;11.40;99.90;;;;;;4892615;29;20048;-82
2022/10/19 01:49:09;;;;;;;5.32;1.02;;;11.40;99.90;;;;;;4876788;29;20189;-82
2022/10/19 01:51:39;;;;;;;14.15;1.42;;;11.30;99.90;;;;;;4893666;29;20096;-82
2022/10/19 01:54:11;;;;;;;9.30;1.08;;;11.30;99.90;;;;;;4876656;29;20056;-82
2022/10/19 01:56:38;;;;;;;9.75;1.23;;;11.30;99.90;;;;;;4893591;29;20052;-82
2022/10/19 01:59:06;;;;;;;15.10;1.40;;;11.30;99.90;;;;;;4858951;29;20187;-82
2022/10/19 02:01:35;;;;;;;12.13;1.10;;;11.30;99.90;;;;;;4874128;29;20136;-82
2022/10/19 02:04:02;;;;;;;11.60;1.48;;;11.30;99.90;;;;;;4857205;29;20055;-82
2022/10/19 02:06:27;;;;;;;8.43;1.20;;;11.30;99.90;;;;;;4874704;29;20057;-82
2022/10/19 02:08:53;;;;;;;8.70;1.20;;;11.30;99.90;;;;;;4872850;29;20056;-82
2022/10/19 02:11:21;;;;;;;10.18;1.20;;;11.30;99.90;;;;;;4874854;29;20045;-82
2022/10/19 02:13:53;;;;;;;15.30;1.88;;;11.20;99.90;;;;;;4858348;29;20053;-82
2022/10/19 02:16:24;;;;;;;8.90;1.13;;;11.30;99.90;;;;;;4874690;29;20052;-82
2022/10/19 02:18:52;;;;;;;16.00;2.13;;;11.30;99.90;;;;;;4887124;29;20049;-81
2022/10/19 02:21:18;;;;;;;11.00;1.58;;;11.30;99.90;;;;;;4873973;29;20490;-82
2022/10/19 02:23:44;;;;;;;8.52;1.80;;;11.20;99.90;;;;;;4873373;29;20057;-82
2022/10/19 02:26:10;;;;;;;12.43;1.35;;;11.20;99.90;;;;;;4874051;29;20049;-82
2022/10/19 02:28:36;;;;;;;10.40;1.30;;;11.20;99.90;;;;;;4873516;29;20655;-82
2022/10/19 02:31:02;;;;;;;9.70;1.60;;;11.10;99.90;;;;;;4883089;29;20053;-82
2022/10/19 02:33:28;;;;;;;9.40;1.15;;;11.10;99.90;;;;;;4891833;29;20501;-81
2022/10/19 02:35:55;;;;;;;8.90;1.38;;;11.10;99.90;;;;;;4891331;29;20096;-81
2022/10/19 02:38:22;;;;;;;14.90;1.85;;;11.00;99.90;;;;;;4892678;29;20040;-82
2022/10/19 02:40:57;;;;;;;13.52;1.45;;;11.00;99.90;;;;;;4892470;29;20080;-82
2022/10/19 02:43:25;;;;;;;13.70;1.90;;;11.00;99.90;;;;;;4891898;29;20052;-82
2022/10/19 02:46:01;;;;;;;19.15;1.60;;;10.90;99.90;;;;;;4891581;29;20094;-82
2022/10/19 02:48:30;;;;;;;10.45;1.60;;;10.80;99.90;;;;;;4876268;29;20052;-82
2022/10/19 02:50:56;;;;;;;19.15;1.60;;;10.70;99.90;;;;;;4891367;29;20092;-82
2022/10/19 02:53:21;;;;;;;9.05;1.50;;;10.60;99.90;;;;;;4892317;29;20048;-82
2022/10/19 02:55:48;;;;;;;14.00;1.40;;;10.60;99.90;;;;;;4891511;29;20115;-82
2022/10/19 02:58:14;;;;;;;16.50;1.80;;;10.40;99.90;;;;;;4876143;29;20151;-82
2022/10/19 03:00:40;;;;;;;15.60;1.58;;;10.20;99.90;;;;;;4891994;29;20417;-82
2022/10/19 03:03:06;;;;;;;13.68;1.48;;;10.10;99.90;;;;;;4875616;29;20048;-82
2022/10/19 03:05:31;;;;;;;16.65;1.58;;;10.10;99.90;;;;;;4876282;29;20136;-82
2022/10/19 03:07:57;;;;;;;13.80;1.20;;;9.90;99.90;;;;;;4891334;29;20044;-82
2022/10/19 03:10:23;;;;;;;10.82;1.50;;;9.80;99.90;;;;;;4891635;29;20779;-82
2022/10/19 03:12:48;;;;;;;16.40;1.98;;;9.80;99.90;;;;;;4891334;29;20204;-82
2022/10/19 03:15:16;;;;;;;15.68;1.60;;;9.70;99.90;;;;;;4892132;29;20040;-82
2022/10/19 03:17:42;;;;;;;16.27;1.48;;;9.70;99.90;;;;;;4874706;29;20053;-82
2022/10/19 03:20:09;;;;;;;11.30;2.25;;;9.60;99.90;;;;;;4891680;29;20134;-82
2022/10/19 03:22:34;;;;;;;18.38;1.77;;;9.60;99.90;;;;;;4891761;29;20256;-82
2022/10/19 03:25:00;;;;;;;15.10;1.55;;;9.60;99.90;;;;;;4874852;29;20135;-82
2022/10/19 03:27:26;;;;;;;15.00;2.00;;;9.60;99.90;;;;;;4891988;29;20047;-81
2022/10/19 03:29:51;;;;;;;11.65;1.85;;;9.60;99.90;;;;;;4875504;29;20428;-82
2022/10/19 03:32:17;;;;;;;8.85;1.27;;;9.60;99.90;;;;;;4905567;29;20088;-82
2022/10/19 03:34:43;;;;;;;13.73;1.80;;;9.60;99.90;;;;;;4891357;29;20044;-82
2022/10/19 03:37:08;;;;;;;11.90;1.98;;;9.60;99.90;;;;;;4891738;29;20094;-82
2022/10/19 03:39:34;;;;;;;11.15;1.67;;;9.60;99.90;;;;;;4891018;29;20587;-82
2022/10/19 03:42:00;;;;;;;12.27;1.80;;;9.70;99.90;;;;;;4860328;29;20052;-82
2022/10/19 03:44:26;;;;;;;13.07;1.48;;;9.70;99.90;;;;;;4890979;29;20075;-82
2022/10/19 03:46:51;;;;;;;15.85;1.33;;;9.70;99.90;;;;;;4874955;29;20075;-82
2022/10/19 03:49:17;;;;;;;12.23;1.42;;;9.70;99.90;;;;;;4890412;29;20055;-82
2022/10/19 03:51:43;;;;;;;12.82;1.45;;;9.70;99.90;;;;;;4875496;29;20076;-82
2022/10/19 03:54:13;;;;;;;11.85;1.85;;;9.70;99.90;;;;;;4875389;29;20052;-82
2022/10/19 03:56:39;;;;;;;12.68;1.73;;;9.80;99.90;;;;;;4875149;29;20143;-82
2022/10/19 03:59:05;;;;;;;13.13;2.03;;;9.80;99.90;;;;;;4876036;29;20135;-82
2022/10/19 04:01:35;;;;;;;17.55;2.10;;;9.80;99.90;;;;;;4874881;29;20429;-82
2022/10/19 04:04:04;;;;;;;21.63;3.10;;;9.90;99.90;;;;;;4889587;29;20135;-82
2022/10/19 04:06:34;;;;;;;33.38;2.53;;;9.90;99.90;;;;;;4890173;29;20032;-82
2022/10/19 04:09:00;;;;;;;12.10;1.85;;;9.90;99.90;;;;;;4886497;29;20756;-82
2022/10/19 04:11:28;;;;;;;13.00;1.45;;;10.00;99.90;;;;;;4891087;29;20053;-82
2022/10/19 04:13:56;;;;;;;11.32;1.48;;;10.00;99.90;;;;;;4890119;29;20111;-81
2022/10/19 04:16:23;;;;;;;14.52;2.75;;;10.00;99.90;;;;;;4890775;29;20083;-82
2022/10/19 04:18:49;;;;;;;15.70;2.03;;;9.90;99.90;;;;;;4889767;29;20041;-82
2022/10/19 04:21:23;;;;;;;19.35;2.25;;;10.00;99.90;;;;;;4890645;29;20056;-81
2022/10/19 04:23:51;;;;;;;16.17;2.00;;;10.00;99.90;;;;;;4890444;29;20139;-82
2022/10/19 04:26:17;;;;;;;18.17;2.67;;;9.90;99.90;;;;;;4891296;29;20061;-82
2022/10/19 04:28:43;;;;;;;15.05;1.85;;;9.90;99.90;;;;;;4889897;29;20540;-81
2022/10/19 04:31:10;;;;;;;16.42;1.65;;;9.90;99.90;;;;;;4884276;29;20173;-82
2022/10/19 04:33:36;;;;;;;11.65;1.75;;;9.80;99.90;;;;;;4890182;29;20052;-81
2022/10/19 04:36:05;;;;;;;18.83;2.83;;;9.80;99.90;;;;;;4874561;29;20044;-82
2022/10/19 04:38:31;;;;;;;15.32;1.88;;;9.80;99.90;;;;;;4890589;29;20054;-82
2022/10/19 04:41:02;;;;;;;23.52;2.25;;;9.80;99.90;;;;;;4891083;29;20485;-82
2022/10/19 04:43:28;;;;;;;18.13;2.03;;;10.00;99.90;;;;;;4878116;29;20056;-82
2022/10/19 04:45:54;;;;;;;14.70;1.52;;;9.80;99.90;;;;;;4894328;29;20059;-81
2022/10/19 04:48:20;;;;;;;14.48;2.05;;;9.80;99.90;;;;;;4893560;29;20044;-82
2022/10/19 04:50:46;;;;;;;14.57;1.48;;;9.70;99.90;;;;;;4893555;29;20040;-82
2022/10/19 04:53:12;;;;;;;13.68;1.92;;;9.70;99.90;;;;;;4894449;29;20048;-81
2022/10/19 04:55:41;;;;;;;22.20;1.60;;;9.80;99.90;;;;;;4878900;29;20096;-82
2022/10/19 04:58:07;;;;;;;15.90;1.80;;;9.80;99.90;;;;;;4894447;29;20386;-82
2022/10/19 05:00:33;;;;;;;16.42;2.10;;;9.80;99.90;;;;;;4894222;29;20037;-81
2022/10/19 05:02:58;;;;;;;17.98;2.22;;;9.80;99.90;;;;;;4892642;29;20139;-81
2022/10/19 05:05:25;;;;;;;20.77;2.25;;;9.90;99.90;;;;;;4908766;29;20049;-82
2022/10/19 05:07:51;;;;;;;18.60;1.75;;;9.90;99.90;;;;;;4896788;29;20048;-82
2022/10/19 05:10:17;;;;;;;17.70;2.03;;;10.00;99.90;;;;;;4912906;29;20404;-82
2022/10/19 05:12:42;;;;;;;15.20;1.50;;;9.90;99.90;;;;;;4912054;29;20048;-81
2022/10/19 05:15:09;;;;;;;15.77;1.65;;;10.00;99.90;;;;;;4901128;29;20105;-81
2022/10/19 05:17:35;;;;;;;12.82;1.55;;;10.00;99.90;;;;;;4892397;29;20462;-82
2022/10/19 05:20:01;;;;;;;13.85;2.10;;;10.00;99.90;;;;;;4894225;29;20059;-82
2022/10/19 05:22:26;;;;;;;11.82;1.38;;;10.00;99.90;;;;;;4894516;29;20045;-81
2022/10/19 05:24:52;;;;;;;13.82;2.70;;;10.10;99.90;;;;;;4892774;29;20484;-81
2022/10/19 05:27:18;;;;;;;16.95;1.98;;;10.10;99.90;;;;;;4894317;29;20067;-82
2022/10/19 05:29:43;;;;;;;11.90;1.55;;;10.20;99.90;;;;;;4893614;29;20063;-82
2022/10/19 05:32:09;;;;;;;22.45;1.80;;;10.10;99.90;;;;;;4893296;29;20064;-82
2022/10/19 05:34:35;;;;;;;19.58;2.00;;;10.10;99.90;;;;;;4877421;29;20088;-81
2022/10/19 05:37:00;;;;;;;15.93;1.90;;;10.20;99.90;;;;;;4908837;29;20129;-81
2022/10/19 05:39:26;;;;;;;15.85;1.90;;;10.20;99.90;;;;;;4893034;29;20565;-82
2022/10/19 05:41:52;;;;;;;15.73;2.03;;;10.20;99.90;;;;;;4908871;29;20052;-83
2022/10/19 05:44:20;;;;;;;14.77;2.03;;;10.20;99.90;;;;;;4893868;29;20202;-82
2022/10/19 05:46:46;;;;;;;17.15;2.13;;;10.20;99.90;;;;;;4880183;29;20055;-81
2022/10/19 05:49:13;;;;;;;15.35;1.73;;;10.30;99.90;;;;;;4892799;29;20051;-82
2022/10/19 05:51:39;;;;;;;19.67;1.90;;;10.30;99.90;;;;;;4878199;29;20761;-81
2022/10/19 05:54:05;;;;;;;22.40;1.85;;;10.20;99.90;;;;;;4891607;29;20104;-82
2022/10/19 05:56:31;;;;;;;15.93;2.28;;;10.20;99.90;;;;;;4894054;29;20061;-82
2022/10/19 05:58:59;;;;;;;16.85;2.50;;;10.20;99.90;;;;;;4892891;29;20049;-82
2022/10/19 06:01:26;;;;;;;21.25;2.67;;;10.20;99.90;;;;;;4893877;29;20044;-82
2022/10/19 06:03:55;;;;;;;16.90;2.03;;;10.20;99.90;;;;;;4892210;29;20658;-82
2022/10/19 06:06:21;;;;;;;18.48;4.15;;;10.30;99.90;;;;;;4893025;29;20052;-81
2022/10/19 06:08:48;;;;;;;18.00;2.90;;;10.20;99.90;;;;;;4892892;29;20044;-82
2022/10/19 06:11:21;;;;;;;18.92;1.88;;;10.20;99.90;;;;;;4893093;29;20056;-82
2022/10/19 06:13:49;;;;;;;16.75;1.90;;;10.20;99.90;;;;;;4892435;29;20060;-82
2022/10/19 06:16:18;;;;;;;17.67;2.42;;;10.20;99.90;;;;;;4878003;29;20045;-82
2022/10/19 06:18:45;;;;;;;17.95;2.00;;;10.30;99.90;;;;;;4887546;29;20049;-82
2022/10/19 06:21:13;;;;;;;12.65;1.92;;;10.40;99.90;;;;;;4883381;29;20045;-82
2022/10/19 06:23:39;;;;;;;18.90;2.05;;;10.30;99.90;;;;;;4867587;29;20477;-82
2022/10/19 06:26:07;;;;;;;22.10;2.63;;;10.30;99.90;;;;;;4882143;29;20072;-82
2022/10/19 06:28:34;;;;;;;18.35;2.03;;;10.30;99.90;;;;;;4882835;29;20052;-82
2022/10/19 06:31:00;;;;;;;17.50;2.05;;;10.40;99.90;;;;;;4867541;29;20049;-82
2022/10/19 06:33:26;;;;;;;10.77;1.55;;;10.40;99.90;;;;;;4881192;29;20056;-82
2022/10/19 06:35:52;;;;;;;16.10;2.17;;;10.40;99.90;;;;;;4884101;29;20099;-82
2022/10/19 06:38:18;;;;;;;17.45;2.35;;;10.40;99.90;;;;;;4883537;29;20056;-82
2022/10/19 06:40:44;;;;;;;12.65;2.30;;;10.50;99.90;;;;;;4886738;29;20128;-82
2022/10/19 06:43:10;;;;;;;14.07;1.85;;;10.50;99.90;;;;;;4891084;29;20089;-82
2022/10/19 06:45:37;;;;;;;16.63;1.95;;;10.60;99.90;;;;;;4892823;29;20135;-82
2022/10/19 06:48:04;;;;;;;15.00;2.28;;;10.60;99.90;;;;;;4890847;29;20096;-82
2022/10/19 06:50:31;;;;;;;14.52;2.22;;;10.60;99.90;;;;;;4876541;29;20055;-83
2022/10/19 06:52:58;;;;;;;17.25;2.08;;;10.60;99.90;;;;;;4892104;29;20045;-82
2022/10/19 06:55:24;;;;;;;18.45;1.67;;;10.60;99.90;;;;;;4891639;29;20160;-82
2022/10/19 06:57:50;;;;;;;17.83;1.85;;;10.90;99.90;;;;;;4892214;29;20049;-82
2022/10/19 07:00:16;;;;;;;13.25;1.48;;;10.70;99.90;;;;;;4891803;29;20052;-82
2022/10/19 07:02:42;;;;;;;20.77;2.33;;;10.70;99.90;;;;;;4890725;29;20497;-82
2022/10/19 07:05:08;;;;;;;15.05;1.75;;;10.70;99.90;;;;;;4892080;29;20124;-82
2022/10/19 07:07:34;;;;;;;14.43;1.70;;;10.80;99.90;;;;;;4892355;29;20382;-82
2022/10/19 07:10:00;;;;;;;16.45;1.52;;;10.80;99.90;;;;;;4890976;29;20064;-82
2022/10/19 07:12:26;;;;;;;12.90;2.00;;;10.80;99.90;;;;;;4891580;29;20052;-82
2022/10/19 07:14:54;;;;;;;16.77;1.77;;;10.80;99.90;;;;;;4891549;29;20115;-82
2022/10/19 07:17:20;;;;;;;17.00;1.75;;;10.90;99.90;;;;;;4890226;29;20100;-82
2022/10/19 07:19:46;;;;;;;14.55;1.58;;;10.90;99.90;;;;;;4891763;29;20054;-82
2022/10/19 07:22:12;;;;;;;15.85;1.58;;;10.90;99.90;;;;;;4892193;29;20052;-82
2022/10/19 07:24:37;;;;;;;19.67;2.30;;;11.00;99.90;;;;;;4887205;29;20409;-82
2022/10/19 07:27:03;;;;;;;12.27;1.52;;;11.00;99.90;;;;;;4891306;29;20544;-82
2022/10/19 07:29:29;;;;;;;18.25;2.05;;;11.10;99.90;;;;;;4891755;29;20056;-82
2022/10/19 07:31:55;;;;;;;16.83;1.75;;;11.10;99.90;;;;;;4890466;29;20446;-82
2022/10/19 07:34:20;;;;;;;18.08;2.30;;;11.20;99.90;;;;;;4890978;29;20044;-83
2022/10/19 07:36:47;;;;;;;14.35;1.80;;;11.30;99.90;;;;;;4875342;29;20083;-82
2022/10/19 07:39:15;;;;;;;15.15;1.80;;;11.30;99.90;;;;;;4875350;29;20045;-83
2022/10/19 07:41:42;;;;;;;8.30;1.50;;;11.40;99.90;;;;;;4906865;29;20041;-83
2022/10/19 07:44:08;;;;;;;14.07;1.77;;;11.40;99.90;;;;;;4875800;29;20409;-81
2022/10/19 07:46:35;;;;;;;15.35;2.28;;;11.40;99.90;;;;;;4889980;29;20055;-81
2022/10/19 07:49:04;;;;;;;14.57;1.70;;;11.50;99.90;;;;;;4874374;29;20063;-82
2022/10/19 07:51:29;;;;;;;18.92;2.33;;;11.50;99.90;;;;;;4875954;29;20096;-82
2022/10/19 07:53:57;;;;;;;19.30;2.05;;;11.50;99.90;;;;;;4890517;29;20403;-82
2022/10/19 07:56:25;;;;;;;12.88;1.65;;;11.60;99.90;;;;;;4891547;29;20502;-82
2022/10/19 07:58:52;;;;;;;17.48;1.38;;;11.60;99.90;;;;;;4873940;29;20155;-82
2022/10/19 08:01:21;;;;;;;16.42;1.50;;;11.60;99.90;;;;;;4876094;29;20056;-82
2022/10/19 08:03:47;;;;;;;11.43;2.08;;;11.70;99.90;;;;;;4874094;29;20052;-82
2022/10/19 08:06:16;;;;;;;14.55;1.48;;;11.70;99.90;;;;;;4890979;29;20059;-82
2022/10/19 08:08:42;;;;;;;9.50;1.40;;;11.80;99.90;;;;;;4890193;29;20143;-82
2022/10/19 08:11:11;;;;;;;10.75;1.58;;;11.80;99.90;;;;;;4891333;29;20048;-82
2022/10/19 08:13:37;;;;;;;13.52;1.67;;;11.80;99.90;;;;;;4874495;29;20139;-82
2022/10/19 08:16:04;;;;;;;18.27;1.98;;;11.90;99.90;;;;;;4875769;29;20052;-82
2022/10/19 08:18:30;;;;;;;17.88;1.88;;;11.90;99.90;;;;;;4878781;29;20056;-82
2022/10/19 08:20:56;;;;;;;11.63;1.58;;;12.00;99.90;;;;;;4893675;29;20052;-82
2022/10/19 08:23:22;;;;;;;10.45;1.70;;;12.10;99.90;;;;;;4894870;29;20062;-83
2022/10/19 08:25:48;;;;;;;11.32;1.48;;;12.10;99.90;;;;;;4894180;29;20087;-83
2022/10/19 08:28:14;;;;;;;13.52;1.35;;;12.10;99.90;;;;;;4894649;29;20044;-83
2022/10/19 08:30:39;;;;;;;14.75;1.73;;;12.20;99.90;;;;;;4878797;29;20508;-83
2022/10/19 08:33:07;;;;;;;13.25;1.40;;;12.20;99.90;;;;;;4893479;29;20082;-83
2022/10/19 08:35:33;;;;;;;22.48;2.15;;;12.20;99.90;;;;;;4878558;29;20083;-83
2022/10/19 08:37:59;;;;;;;17.55;1.65;;;12.20;99.90;;;;;;4878122;29;20107;-83
2022/10/19 08:40:28;;;;;;;12.07;1.63;;;12.30;99.90;;;;;;4879320;29;20501;-83
2022/10/19 08:43:03;;;;;;;17.00;1.55;;;12.30;99.90;;;;;;4876956;29;20053;-83
2022/10/19 08:45:49;;;;;;;15.98;1.80;;;12.40;99.90;;;;;;4894836;29;20056;-83
2022/10/19 08:48:28;;;;;;;11.90;1.70;;;12.40;99.90;;;;;;4886773;29;20050;-83
2022/10/19 08:50:55;;;;;;;16.52;1.92;;;12.40;99.90;;;;;;4882559;29;20342;-83
2022/10/19 08:53:36;;;;;;;18.25;1.73;;;12.50;99.90;;;;;;4888094;29;20073;-83
2022/10/19 08:56:04;;;;;;;14.75;2.13;;;12.50;99.90;;;;;;4858590;29;20049;-83
2022/10/19 08:58:46;;;;;;;14.98;1.65;;;12.50;99.90;;;;;;4860413;29;20131;-83
2022/10/19 09:01:19;;;;;;;19.00;2.17;;;12.50;99.90;;;;;;4875956;29;20188;-82
2022/10/19 09:03:54;;;;;;;16.15;1.73;;;12.60;99.90;;;;;;4872998;29;20040;-83
2022/10/19 09:06:44;;;;;;;17.42;1.48;;;12.70;99.90;;;;;;4875117;29;20439;-83
2022/10/19 09:09:13;;;;;;;11.30;1.85;;;12.70;99.90;;;;;;4859193;29;20163;-83
2022/10/19 09:11:46;;;;;;;15.25;1.83;;;12.70;99.90;;;;;;4875291;29;20053;-82
2022/10/19 09:14:17;;;;;;;17.42;1.85;;;12.70;99.90;;;;;;4875095;29;20053;-82
2022/10/19 09:16:43;;;;;;;13.32;2.08;;;12.80;99.90;;;;;;4858639;29;20320;-82
2022/10/19 09:19:20;;;;;;;15.63;1.90;;;12.80;99.90;;;;;;4874491;29;20516;-81
2022/10/19 09:21:50;;;;;;;8.02;1.48;;;12.80;99.90;;;;;;4859459;29;20049;-82
2022/10/19 09:24:42;;;;;;;14.45;1.95;;;12.90;99.90;;;;;;4878213;29;20177;-82
2022/10/19 09:27:20;;;;;;;12.27;1.58;;;12.90;99.90;;;;;;4893653;29;20132;-83
2022/10/19 09:29:57;;;;;;;14.40;2.05;;;12.90;99.90;;;;;;4893161;29;20057;-82
2022/10/19 09:32:29;;;;;;;13.45;1.73;;;12.90;99.90;;;;;;4876591;29;20410;-82
2022/10/19 09:35:01;;;;;;;17.05;2.17;;;12.90;99.90;;;;;;4893679;29;20572;-82
2022/10/19 09:37:28;;;;;;;14.90;1.55;;;12.90;99.90;;;;;;4908304;29;20087;-82
2022/10/19 09:39:54;;;;;;;13.27;1.60;;;12.90;99.90;;;;;;4877975;29;20061;-82
2022/10/19 09:42:28;;;;;;;8.50;1.40;;;12.90;99.90;;;;;;4877604;29;20426;-82
2022/10/19 09:44:55;;;;;;;9.93;1.60;;;13.00;99.90;;;;;;4892705;29;20466;-82
2022/10/19 09:47:39;;;;;;;11.32;1.55;;;13.00;99.90;;;;;;4877031;29;20047;-82
2022/10/19 09:50:15;;;;;;;9.35;1.60;;;13.00;99.90;;;;;;4893797;29;20405;-82
2022/10/19 09:52:42;;;;;;;16.33;1.42;;;13.00;99.90;;;;;;4892070;29;20044;-82
2022/10/19 09:55:21;;;;;;;12.80;1.45;;;13.00;99.90;;;;;;4878315;29;20491;-82
2022/10/19 09:57:49;;;;;;;7.78;1.02;;;13.10;99.90;;;;;;4894285;29;20061;-82
2022/10/19 10:00:20;;;;;;;9.52;1.42;;;13.10;99.90;;;;;;4892838;29;20147;-82
2022/10/19 10:02:51;;;;;;;14.68;2.13;;;13.20;99.90;;;;;;4891958;29;20057;-82
2022/10/19 10:05:17;;;;;;;22.13;2.40;;;13.20;99.90;;;;;;4892203;29;20057;-82
2022/10/19 10:07:44;;;;;;;17.38;1.38;;;13.30;99.90;;;;;;4892794;29;20079;-82
2022/10/19 10:10:22;;;;;;;25.73;1.77;;;13.30;99.90;;;;;;4877830;29;20059;-82
2022/10/19 10:12:50;;;;;;;13.32;1.17;;;13.40;99.90;;;;;;4891789;29;20530;-82
2022/10/19 10:15:20;;;;;;;14.25;1.83;;;13.40;99.90;;;;;;4877473;29;20147;-83
2022/10/19 10:17:47;;;;;;;14.25;1.42;;;13.50;99.90;;;;;;4876399;29;20116;-82
2022/10/19 10:20:22;;;;;;;17.33;1.45;;;13.50;99.90;;;;;;4891759;29;20049;-82
2022/10/19 10:23:01;;;;;;;11.20;1.80;;;13.50;99.90;;;;;;4891908;29;20052;-82
2022/10/19 10:25:31;;;;;;;23.48;1.50;;;13.60;99.90;;;;;;4893253;29;20405;-82
2022/10/19 10:28:03;;;;;;;9.38;1.63;;;13.60;99.90;;;;;;4891491;29;20045;-82
2022/10/19 10:30:33;;;;;;;12.18;1.67;;;13.60;99.90;;;;;;4895087;29;20087;-82
2022/10/19 10:33:00;;;;;;;8.57;0.90;;;13.60;99.90;;;;;;4895049;29;20055;-82
2022/10/19 10:35:33;;;;;;;11.80;1.45;;;13.70;99.90;;;;;;4879168;29;20044;-82
2022/10/19 10:38:12;;;;;;;14.23;1.98;;;13.80;99.90;;;;;;4895194;29;20055;-82
2022/10/19 10:40:39;;;;;;;7.90;1.20;;;13.70;99.90;;;;;;4894234;29;20055;-81
2022/10/19 10:43:14;;;;;;;12.00;1.30;;;13.70;99.90;;;;;;4894913;29;20405;-82
2022/10/19 10:45:45;;;;;;;8.45;1.27;;;13.80;99.90;;;;;;4879974;29;20465;-82
2022/10/19 10:48:22;;;;;;;11.32;1.38;;;13.80;99.90;;;;;;4893891;29;20051;-82
2022/10/19 10:50:50;;;;;;;11.93;1.25;;;13.80;99.90;;;;;;4913716;29;20044;-82
2022/10/19 10:53:36;;;;;;;12.77;1.83;;;13.80;99.90;;;;;;4914599;29;20079;-81
2022/10/19 10:56:04;;;;;;;7.47;1.13;;;13.90;99.90;;;;;;4913366;29;20050;-82
2022/10/19 10:58:47;;;;;;;18.42;1.45;;;13.90;99.90;;;;;;4914173;29;20059;-82
2022/10/19 11:01:22;;;;;;;11.43;1.27;;;14.00;99.90;;;;;;4914385;29;20051;-82
2022/10/19 11:04:05;;;;;;;17.23;1.48;;;14.00;99.90;;;;;;4895958;29;20058;-82
2022/10/19 11:06:34;;;;;;;7.75;1.00;;;14.00;99.90;;;;;;4914073;29;20051;-82
2022/10/19 11:09:10;;;;;;;7.55;1.48;;;13.90;99.90;;;;;;4912835;29;20044;-82
2022/10/19 11:11:40;;;;;;;9.95;1.30;;;13.90;99.90;;;;;;4898534;29;20055;-81
2022/10/19 11:14:36;;;;;;;10.73;1.50;;;14.00;99.90;;;;;;4897920;29;20098;-82
2022/10/19 11:17:06;;;;;;;15.40;2.05;;;14.00;99.90;;;;;;4913127;29;20039;-81
2022/10/19 11:19:38;;;;;;;9.32;1.20;;;14.00;99.90;;;;;;4897278;29;20118;-82
2022/10/19 11:22:10;;;;;;;17.08;1.67;;;14.00;99.90;;;;;;4914369;29;20151;-82
2022/10/19 11:24:49;;;;;;;15.52;1.70;;;14.10;99.90;;;;;;4890058;29;20511;-82
2022/10/19 11:27:30;;;;;;;13.38;1.38;;;14.10;99.90;;;;;;4911763;29;20051;-82
2022/10/19 11:30:13;;;;;;;10.45;1.45;;;14.10;99.90;;;;;;4910751;29;20051;-81
2022/10/19 11:32:51;;;;;;;12.25;1.60;;;14.10;99.90;;;;;;4893497;29;20059;-81
2022/10/19 11:35:28;;;;;;;8.07;1.52;;;14.10;99.90;;;;;;4912264;29;20048;-82
2022/10/19 11:38:19;;;;;;;16.00;2.72;;;14.10;99.90;;;;;;4893404;29;20048;-82
2022/10/19 11:40:54;;;;;;;13.60;1.73;;;14.00;99.90;;;;;;4894242;29;20096;-81
2022/10/19 11:43:36;;;;;;;10.93;2.60;;;13.90;99.90;;;;;;4894496;29;20071;-82
2022/10/19 11:46:14;;;;;;;6.90;1.23;;;13.90;99.90;;;;;;4911675;29;20083;-82
2022/10/19 11:48:58;;;;;;;14.60;1.60;;;13.80;99.90;;;;;;4877953;29;20071;-82
2022/10/19 11:51:45;;;;;;;8.15;1.40;;;13.80;99.90;;;;;;4894427;29;20044;-81
2022/10/19 11:54:44;;;;;;;16.13;1.20;;;13.70;99.90;;;;;;4894630;29;20052;-81
2022/10/19 11:57:20;;;;;;;9.25;1.35;;;13.80;99.90;;;;;;4890540;29;20048;-81
2022/10/19 11:59:50;;;;;;;14.30;1.50;;;13.90;99.90;;;;;;4874790;29;20572;-82
2022/10/19 12:02:46;;;;;;;15.90;1.90;;;14.00;99.90;;;;;;4874996;29;20097;-81
2022/10/19 12:05:20;;;;;;;9.32;0.98;;;14.10;99.90;;;;;;4875592;29;20087;-81
2022/10/19 12:08:19;;;;;;;7.38;1.85;;;14.10;99.90;;;;;;4874763;29;20041;-81
2022/10/19 12:11:02;;;;;;;9.18;1.20;;;14.20;99.90;;;;;;4891357;29;20060;-82
2022/10/19 12:13:43;;;;;;;11.38;1.67;;;14.20;99.90;;;;;;4859973;29;20400;-82
2022/10/19 12:16:12;;;;;;;11.68;1.67;;;14.20;99.90;;;;;;4875523;29;20048;-82
2022/10/19 12:18:46;;;;;;;10.05;1.33;;;14.10;99.90;;;;;;4874660;29;20177;-82
2022/10/19 12:21:18;;;;;;;9.02;1.60;;;14.10;99.90;;;;;;4875585;29;20052;-82
2022/10/19 12:23:45;;;;;;;12.35;1.52;;;14.10;99.90;;;;;;4875009;29;20064;-82
2022/10/19 12:26:16;;;;;;;14.70;1.48;;;14.10;99.90;;;;;;4874819;29;20044;-82
2022/10/19 12:28:51;;;;;;;9.23;1.40;;;14.00;99.90;;;;;;4875353;29;20379;-82
2022/10/19 12:31:17;;;;;;;6.53;1.25;;;14.00;99.90;;;;;;4856755;29;20152;-81
2022/10/19 12:33:48;;;;;;;11.18;1.58;;;13.90;99.90;;;;;;4870550;29;20049;-83
2022/10/19 12:36:37;;;;;;;9.40;1.40;;;14.00;99.90;;;;;;4874233;29;20049;-82
2022/10/19 12:39:12;;;;;;;10.45;1.60;;;14.10;99.90;;;;;;4872158;29;20154;-82
2022/10/19 12:42:13;;;;;;;8.98;1.50;;;14.00;99.90;;;;;;4871708;29;20049;-82
2022/10/19 12:44:53;;;;;;;9.70;1.42;;;14.00;99.90;;;;;;4856055;29;20053;-82
2022/10/19 12:47:22;;;;;;;9.00;1.55;;;13.80;99.90;;;;;;4880774;29;20066;-82
2022/10/19 12:49:54;;;;;;;13.95;1.85;;;13.70;99.90;;;;;;4875062;29;20077;-82
2022/10/19 12:52:35;;;;;;;10.73;1.63;;;13.70;99.90;;;;;;4890709;29;20497;-82
2022/10/19 12:55:20;;;;;;;13.35;1.65;;;13.60;99.90;;;;;;4874207;29;20053;-82